Winifred, Kentucky
Current Conditions -  °F | °C
As of 3:15 PM on Monday 24 Nov 2014 (Local Time) from KSJS Reporting Station
Scattered Clouds Scattered Clouds  
Wind Chill: 68°   Ceiling: Unl
Heat Index: 68°   Visibility: 10mi
Dew Point: 41°   Wind: 15mph
Humidity: 37%   Direction: 240°WSW
Pressure: 29.66"   Gusts: 32mph
Location:  37.9467°N, 82.8859°W
Report Text: KSJS 242015Z AUTO 24013G28KT 10SM SCT075 SCT085 20/05 A2966 RMK AO2 T02000048
Loading
Personal Weather Stations






























Interactive Weather Map New forecast layout! Learn more

10-Day Weather Forecast

Advertisements
Track Severe Weather on mobile